sensor_id;sensor_type;location;lat;lon;timestamp;P1;durP1;ratioP1;P2;durP2;ratioP2
33491;SDS011;20010;51.488;7.232;2023-04-15T00:00:56;12.07;;;11.07;;
33491;SDS011;20010;51.488;7.232;2023-04-15T00:03:23;13.57;;;12.55;;
33491;SDS011;20010;51.488;7.232;2023-04-15T00:05:51;13.45;;;12.15;;
33491;SDS011;20010;51.488;7.232;2023-04-15T00:08:17;13.10;;;12.00;;
33491;SDS011;20010;51.488;7.232;2023-04-15T00:10:44;12.40;;;11.40;;
33491;SDS011;20010;51.488;7.232;2023-04-15T00:13:12;12.43;;;11.43;;
33491;SDS011;20010;51.488;7.232;2023-04-15T00:15:38;12.20;;;11.20;;
33491;SDS011;20010;51.488;7.232;2023-04-15T00:18:05;12.32;;;11.30;;
33491;SDS011;20010;51.488;7.232;2023-04-15T00:20:33;13.30;;;11.95;;
33491;SDS011;20010;51.488;7.232;2023-04-15T00:23:01;13.45;;;12.23;;
33491;SDS011;20010;51.488;7.232;2023-04-15T00:25:29;12.77;;;11.88;;
33491;SDS011;20010;51.488;7.232;2023-04-15T00:27:56;13.88;;;12.68;;
33491;SDS011;20010;51.488;7.232;2023-04-15T00:30:22;12.88;;;11.88;;
33491;SDS011;20010;51.488;7.232;2023-04-15T00:32:49;14.45;;;13.15;;
33491;SDS011;20010;51.488;7.232;2023-04-15T00:35:16;13.07;;;12.07;;
33491;SDS011;20010;51.488;7.232;2023-04-15T00:37:42;13.80;;;12.45;;
33491;SDS011;20010;51.488;7.232;2023-04-15T00:40:11;15.00;;;13.38;;
33491;SDS011;20010;51.488;7.232;2023-04-15T00:42:38;13.20;;;12.00;;
33491;SDS011;20010;51.488;7.232;2023-04-15T00:45:05;13.35;;;12.18;;
33491;SDS011;20010;51.488;7.232;2023-04-15T00:47:32;12.90;;;11.98;;
33491;SDS011;20010;51.488;7.232;2023-04-15T00:49:59;13.65;;;12.50;;
33491;SDS011;20010;51.488;7.232;2023-04-15T00:52:26;14.60;;;13.30;;
33491;SDS011;20010;51.488;7.232;2023-04-15T00:54:52;13.77;;;12.57;;
33491;SDS011;20010;51.488;7.232;2023-04-15T00:57:20;14.10;;;12.82;;
33491;SDS011;20010;51.488;7.232;2023-04-15T00:59:47;13.88;;;12.55;;
33491;SDS011;20010;51.488;7.232;2023-04-15T01:02:14;13.90;;;12.82;;
33491;SDS011;20010;51.488;7.232;2023-04-15T01:04:40;15.02;;;13.02;;
33491;SDS011;20010;51.488;7.232;2023-04-15T01:07:07;14.35;;;12.88;;
33491;SDS011;20010;51.488;7.232;2023-04-15T01:09:34;13.70;;;12.52;;
33491;SDS011;20010;51.488;7.232;2023-04-15T01:12:00;13.23;;;11.88;;
33491;SDS011;20010;51.488;7.232;2023-04-15T01:14:27;13.70;;;12.50;;
33491;SDS011;20010;51.488;7.232;2023-04-15T01:16:54;15.25;;;13.40;;
33491;SDS011;20010;51.488;7.232;2023-04-15T01:19:20;14.57;;;13.02;;
33491;SDS011;20010;51.488;7.232;2023-04-15T01:21:47;13.20;;;12.23;;
33491;SDS011;20010;51.488;7.232;2023-04-15T01:24:14;14.48;;;13.38;;
33491;SDS011;20010;51.488;7.232;2023-04-15T01:26:44;14.18;;;12.88;;
33491;SDS011;20010;51.488;7.232;2023-04-15T01:29:10;17.00;;;13.38;;
33491;SDS011;20010;51.488;7.232;2023-04-15T01:31:37;13.98;;;12.93;;
33491;SDS011;20010;51.488;7.232;2023-04-15T01:34:04;14.45;;;13.18;;
33491;SDS011;20010;51.488;7.232;2023-04-15T01:36:30;13.88;;;12.63;;
33491;SDS011;20010;51.488;7.232;2023-04-15T01:38:57;13.48;;;12.48;;
33491;SDS011;20010;51.488;7.232;2023-04-15T01:41:24;14.52;;;13.23;;
33491;SDS011;20010;51.488;7.232;2023-04-15T01:43:53;14.83;;;13.53;;
33491;SDS011;20010;51.488;7.232;2023-04-15T01:46:21;14.20;;;12.90;;
33491;SDS011;20010;51.488;7.232;2023-04-15T01:48:48;15.52;;;14.00;;
33491;SDS011;20010;51.488;7.232;2023-04-15T01:51:14;14.88;;;13.43;;
33491;SDS011;20010;51.488;7.232;2023-04-15T01:53:41;14.32;;;13.02;;
33491;SDS011;20010;51.488;7.232;2023-04-15T01:56:08;14.55;;;13.40;;
33491;SDS011;20010;51.488;7.232;2023-04-15T01:58:34;13.82;;;12.70;;
33491;SDS011;20010;51.488;7.232;2023-04-15T02:01:01;14.65;;;13.30;;
33491;SDS011;20010;51.488;7.232;2023-04-15T02:03:29;15.52;;;14.02;;
33491;SDS011;20010;51.488;7.232;2023-04-15T02:05:55;15.07;;;13.73;;
33491;SDS011;20010;51.488;7.232;2023-04-15T02:08:22;14.80;;;13.50;;
33491;SDS011;20010;51.488;7.232;2023-04-15T02:10:49;15.20;;;13.68;;
33491;SDS011;20010;51.488;7.232;2023-04-15T02:13:16;14.93;;;13.73;;
33491;SDS011;20010;51.488;7.232;2023-04-15T02:15:46;15.77;;;14.18;;
33491;SDS011;20010;51.488;7.232;2023-04-15T02:18:14;14.30;;;13.10;;
33491;SDS011;20010;51.488;7.232;2023-04-15T02:20:41;14.50;;;13.30;;
33491;SDS011;20010;51.488;7.232;2023-04-15T02:23:12;14.57;;;13.30;;
33491;SDS011;20010;51.488;7.232;2023-04-15T02:25:39;15.18;;;13.77;;
33491;SDS011;20010;51.488;7.232;2023-04-15T02:28:05;14.88;;;13.57;;
33491;SDS011;20010;51.488;7.232;2023-04-15T02:30:32;15.20;;;13.82;;
33491;SDS011;20010;51.488;7.232;2023-04-15T02:32:59;15.90;;;14.25;;
33491;SDS011;20010;51.488;7.232;2023-04-15T02:35:26;15.90;;;14.38;;
33491;SDS011;20010;51.488;7.232;2023-04-15T02:37:53;15.60;;;14.30;;
33491;SDS011;20010;51.488;7.232;2023-04-15T02:40:19;15.55;;;14.05;;
33491;SDS011;20010;51.488;7.232;2023-04-15T02:42:46;15.57;;;14.23;;
33491;SDS011;20010;51.488;7.232;2023-04-15T02:45:12;14.13;;;12.77;;
33491;SDS011;20010;51.488;7.232;2023-04-15T02:47:39;16.98;;;14.70;;
33491;SDS011;20010;51.488;7.232;2023-04-15T02:50:08;14.80;;;13.55;;
33491;SDS011;20010;51.488;7.232;2023-04-15T02:52:41;15.55;;;14.25;;
33491;SDS011;20010;51.488;7.232;2023-04-15T02:55:08;15.15;;;13.65;;
33491;SDS011;20010;51.488;7.232;2023-04-15T02:57:35;16.27;;;14.50;;
33491;SDS011;20010;51.488;7.232;2023-04-15T03:02:35;14.93;;;13.27;;
33491;SDS011;20010;51.488;7.232;2023-04-15T03:05:02;14.77;;;13.30;;
33491;SDS011;20010;51.488;7.232;2023-04-15T03:07:29;15.55;;;14.07;;
33491;SDS011;20010;51.488;7.232;2023-04-15T03:09:56;15.70;;;14.10;;
33491;SDS011;20010;51.488;7.232;2023-04-15T03:12:23;14.18;;;13.00;;
33491;SDS011;20010;51.488;7.232;2023-04-15T03:14:49;14.75;;;13.30;;
33491;SDS011;20010;51.488;7.232;2023-04-15T03:17:16;15.07;;;13.73;;
33491;SDS011;20010;51.488;7.232;2023-04-15T03:19:43;14.73;;;13.43;;
33491;SDS011;20010;51.488;7.232;2023-04-15T03:22:09;14.43;;;13.10;;
33491;SDS011;20010;51.488;7.232;2023-04-15T03:24:36;14.70;;;13.45;;
33491;SDS011;20010;51.488;7.232;2023-04-15T03:27:02;15.43;;;14.02;;
33491;SDS011;20010;51.488;7.232;2023-04-15T03:29:31;20.30;;;13.50;;
33491;SDS011;20010;51.488;7.232;2023-04-15T03:31:58;16.83;;;13.57;;
33491;SDS011;20010;51.488;7.232;2023-04-15T03:34:24;15.20;;;13.35;;
33491;SDS011;20010;51.488;7.232;2023-04-15T03:36:51;14.73;;;13.38;;
33491;SDS011;20010;51.488;7.232;2023-04-15T03:39:17;14.52;;;13.13;;
33491;SDS011;20010;51.488;7.232;2023-04-15T03:41:44;13.10;;;12.00;;
33491;SDS011;20010;51.488;7.232;2023-04-15T03:44:10;14.25;;;13.15;;
33491;SDS011;20010;51.488;7.232;2023-04-15T03:46:38;13.90;;;12.90;;
33491;SDS011;20010;51.488;7.232;2023-04-15T03:49:05;13.68;;;12.00;;
33491;SDS011;20010;51.488;7.232;2023-04-15T03:51:32;14.23;;;12.95;;
33491;SDS011;20010;51.488;7.232;2023-04-15T03:53:59;14.90;;;13.55;;
33491;SDS011;20010;51.488;7.232;2023-04-15T03:56:25;14.05;;;12.85;;
33491;SDS011;20010;51.488;7.232;2023-04-15T03:58:52;14.63;;;13.23;;
33491;SDS011;20010;51.488;7.232;2023-04-15T04:01:18;15.00;;;13.52;;
33491;SDS011;20010;51.488;7.232;2023-04-15T04:03:45;14.25;;;13.05;;
33491;SDS011;20010;51.488;7.232;2023-04-15T04:06:11;12.25;;;11.25;;
33491;SDS011;20010;51.488;7.232;2023-04-15T04:08:38;13.80;;;12.48;;
33491;SDS011;20010;51.488;7.232;2023-04-15T04:11:04;13.60;;;12.50;;
33491;SDS011;20010;51.488;7.232;2023-04-15T04:13:31;17.75;;;15.88;;
33491;SDS011;20010;51.488;7.232;2023-04-15T04:15:58;15.77;;;14.38;;
33491;SDS011;20010;51.488;7.232;2023-04-15T04:18:26;15.15;;;13.80;;
33491;SDS011;20010;51.488;7.232;2023-04-15T04:20:52;14.48;;;13.18;;
33491;SDS011;20010;51.488;7.232;2023-04-15T04:23:20;14.93;;;13.52;;
33491;SDS011;20010;51.488;7.232;2023-04-15T04:25:47;14.23;;;13.02;;
33491;SDS011;20010;51.488;7.232;2023-04-15T04:28:13;15.13;;;13.68;;
33491;SDS011;20010;51.488;7.232;2023-04-15T04:30:40;14.52;;;13.23;;
33491;SDS011;20010;51.488;7.232;2023-04-15T04:33:07;13.77;;;12.32;;
33491;SDS011;20010;51.488;7.232;2023-04-15T04:35:33;20.13;;;18.13;;
33491;SDS011;20010;51.488;7.232;2023-04-15T04:38:03;16.60;;;14.88;;
33491;SDS011;20010;51.488;7.232;2023-04-15T04:40:29;16.55;;;14.88;;
33491;SDS011;20010;51.488;7.232;2023-04-15T04:42:56;16.45;;;14.95;;
33491;SDS011;20010;51.488;7.232;2023-04-15T04:45:22;16.25;;;14.65;;
33491;SDS011;20010;51.488;7.232;2023-04-15T04:47:49;16.02;;;14.63;;
33491;SDS011;20010;51.488;7.232;2023-04-15T04:50:16;15.35;;;13.40;;
33491;SDS011;20010;51.488;7.232;2023-04-15T04:52:42;15.57;;;14.15;;
33491;SDS011;20010;51.488;7.232;2023-04-15T04:55:09;14.48;;;13.27;;
33491;SDS011;20010;51.488;7.232;2023-04-15T04:57:35;16.70;;;15.20;;
33491;SDS011;20010;51.488;7.232;2023-04-15T05:02:36;15.65;;;14.25;;
33491;SDS011;20010;51.488;7.232;2023-04-15T05:05:04;15.80;;;14.40;;
33491;SDS011;20010;51.488;7.232;2023-04-15T05:07:31;16.35;;;14.48;;
33491;SDS011;20010;51.488;7.232;2023-04-15T05:09:58;16.80;;;15.10;;
33491;SDS011;20010;51.488;7.232;2023-04-15T05:12:24;15.85;;;14.43;;
33491;SDS011;20010;51.488;7.232;2023-04-15T05:14:51;15.63;;;13.85;;
33491;SDS011;20010;51.488;7.232;2023-04-15T05:17:17;15.73;;;14.32;;
33491;SDS011;20010;51.488;7.232;2023-04-15T05:19:44;16.73;;;15.13;;
33491;SDS011;20010;51.488;7.232;2023-04-15T05:22:11;16.45;;;14.95;;
33491;SDS011;20010;51.488;7.232;2023-04-15T05:24:38;15.98;;;14.38;;
33491;SDS011;20010;51.488;7.232;2023-04-15T05:27:04;15.95;;;14.43;;
33491;SDS011;20010;51.488;7.232;2023-04-15T05:29:31;15.80;;;14.43;;
33491;SDS011;20010;51.488;7.232;2023-04-15T05:31:57;18.38;;;16.55;;
33491;SDS011;20010;51.488;7.232;2023-04-15T05:34:24;15.80;;;14.20;;
33491;SDS011;20010;51.488;7.232;2023-04-15T05:36:50;15.82;;;14.40;;
33491;SDS011;20010;51.488;7.232;2023-04-15T05:39:17;16.67;;;15.15;;
33491;SDS011;20010;51.488;7.232;2023-04-15T05:41:44;16.30;;;14.80;;
33491;SDS011;20010;51.488;7.232;2023-04-15T05:44:10;16.60;;;15.02;;
33491;SDS011;20010;51.488;7.232;2023-04-15T05:46:37;15.82;;;14.32;;
33491;SDS011;20010;51.488;7.232;2023-04-15T05:49:04;16.48;;;15.07;;
33491;SDS011;20010;51.488;7.232;2023-04-15T05:51:31;16.65;;;15.15;;
33491;SDS011;20010;51.488;7.232;2023-04-15T05:53:57;16.45;;;15.05;;
33491;SDS011;20010;51.488;7.232;2023-04-15T05:56:24;16.60;;;14.85;;
33491;SDS011;20010;51.488;7.232;2023-04-15T05:58:52;15.88;;;14.48;;
33491;SDS011;20010;51.488;7.232;2023-04-15T06:01:19;16.20;;;14.68;;
33491;SDS011;20010;51.488;7.232;2023-04-15T06:03:45;16.52;;;14.85;;
33491;SDS011;20010;51.488;7.232;2023-04-15T06:06:12;16.88;;;15.27;;
33491;SDS011;20010;51.488;7.232;2023-04-15T06:08:39;17.98;;;16.02;;
33491;SDS011;20010;51.488;7.232;2023-04-15T06:11:06;21.83;;;19.42;;
33491;SDS011;20010;51.488;7.232;2023-04-15T06:13:32;19.88;;;17.88;;
33491;SDS011;20010;51.488;7.232;2023-04-15T06:16:00;18.48;;;16.67;;
33491;SDS011;20010;51.488;7.232;2023-04-15T06:18:26;18.70;;;16.70;;
33491;SDS011;20010;51.488;7.232;2023-04-15T06:20:53;17.92;;;16.13;;
33491;SDS011;20010;51.488;7.232;2023-04-15T06:23:20;24.13;;;21.40;;
33491;SDS011;20010;51.488;7.232;2023-04-15T06:25:46;23.52;;;21.02;;
33491;SDS011;20010;51.488;7.232;2023-04-15T06:28:13;20.95;;;18.92;;
33491;SDS011;20010;51.488;7.232;2023-04-15T06:30:40;22.08;;;19.38;;
33491;SDS011;20010;51.488;7.232;2023-04-15T06:33:06;19.52;;;17.70;;
33491;SDS011;20010;51.488;7.232;2023-04-15T06:35:33;21.58;;;19.45;;
33491;SDS011;20010;51.488;7.232;2023-04-15T06:38:00;20.90;;;18.83;;
33491;SDS011;20010;51.488;7.232;2023-04-15T06:40:26;18.63;;;16.80;;
33491;SDS011;20010;51.488;7.232;2023-04-15T06:42:53;17.30;;;15.80;;
33491;SDS011;20010;51.488;7.232;2023-04-15T06:45:20;17.90;;;16.20;;
33491;SDS011;20010;51.488;7.232;2023-04-15T06:47:47;18.08;;;16.17;;
33491;SDS011;20010;51.488;7.232;2023-04-15T06:50:13;17.52;;;15.93;;
33491;SDS011;20010;51.488;7.232;2023-04-15T06:52:40;17.10;;;15.48;;
33491;SDS011;20010;51.488;7.232;2023-04-15T06:55:07;16.33;;;14.93;;
33491;SDS011;20010;51.488;7.232;2023-04-15T06:57:33;16.00;;;14.50;;
33491;SDS011;20010;51.488;7.232;2023-04-15T07:00:00;16.98;;;15.38;;
33491;SDS011;20010;51.488;7.232;2023-04-15T07:02:27;15.77;;;14.38;;
33491;SDS011;20010;51.488;7.232;2023-04-15T07:04:54;16.13;;;14.48;;
33491;SDS011;20010;51.488;7.232;2023-04-15T07:07:22;16.52;;;14.85;;
33491;SDS011;20010;51.488;7.232;2023-04-15T07:09:48;15.50;;;14.10;;
33491;SDS011;20010;51.488;7.232;2023-04-15T07:12:15;17.08;;;15.40;;
33491;SDS011;20010;51.488;7.232;2023-04-15T07:14:41;15.93;;;14.52;;
33491;SDS011;20010;51.488;7.232;2023-04-15T07:17:08;15.90;;;14.40;;
33491;SDS011;20010;51.488;7.232;2023-04-15T07:19:35;15.45;;;14.00;;
33491;SDS011;20010;51.488;7.232;2023-04-15T07:22:01;14.50;;;13.30;;
33491;SDS011;20010;51.488;7.232;2023-04-15T07:24:28;15.45;;;13.95;;
33491;SDS011;20010;51.488;7.232;2023-04-15T07:26:55;19.13;;;17.17;;
33491;SDS011;20010;51.488;7.232;2023-04-15T07:29:26;16.17;;;14.68;;
33491;SDS011;20010;51.488;7.232;2023-04-15T07:31:52;15.98;;;14.43;;
33491;SDS011;20010;51.488;7.232;2023-04-15T07:34:19;14.93;;;13.35;;
33491;SDS011;20010;51.488;7.232;2023-04-15T07:36:46;14.13;;;13.02;;
33491;SDS011;20010;51.488;7.232;2023-04-15T07:39:16;13.88;;;12.68;;
33491;SDS011;20010;51.488;7.232;2023-04-15T07:41:43;13.95;;;12.65;;
33491;SDS011;20010;51.488;7.232;2023-04-15T07:44:10;13.48;;;12.30;;
33491;SDS011;20010;51.488;7.232;2023-04-15T07:46:36;14.15;;;12.95;;
33491;SDS011;20010;51.488;7.232;2023-04-15T07:49:03;14.85;;;13.45;;
33491;SDS011;20010;51.488;7.232;2023-04-15T07:51:30;15.80;;;14.40;;
33491;SDS011;20010;51.488;7.232;2023-04-15T07:53:57;14.05;;;12.73;;
33491;SDS011;20010;51.488;7.232;2023-04-15T07:56:24;13.95;;;12.55;;
33491;SDS011;20010;51.488;7.232;2023-04-15T07:58:51;13.30;;;12.20;;
33491;SDS011;20010;51.488;7.232;2023-04-15T08:01:18;14.60;;;13.30;;
33491;SDS011;20010;51.488;7.232;2023-04-15T08:03:45;12.90;;;11.70;;
33491;SDS011;20010;51.488;7.232;2023-04-15T08:06:12;13.38;;;12.38;;
33491;SDS011;20010;51.488;7.232;2023-04-15T08:08:39;12.15;;;11.15;;
33491;SDS011;20010;51.488;7.232;2023-04-15T08:11:05;13.30;;;12.05;;
33491;SDS011;20010;51.488;7.232;2023-04-15T08:13:32;12.25;;;10.95;;
33491;SDS011;20010;51.488;7.232;2023-04-15T08:18:48;12.30;;;11.15;;
33491;SDS011;20010;51.488;7.232;2023-04-15T08:23:43;12.93;;;11.43;;
33491;SDS011;20010;51.488;7.232;2023-04-15T08:26:10;12.60;;;11.50;;
33491;SDS011;20010;51.488;7.232;2023-04-15T08:28:38;12.20;;;11.00;;
33491;SDS011;20010;51.488;7.232;2023-04-15T08:31:07;11.45;;;10.52;;
33491;SDS011;20010;51.488;7.232;2023-04-15T08:33:34;12.38;;;11.18;;
33491;SDS011;20010;51.488;7.232;2023-04-15T08:36:01;13.70;;;12.50;;
33491;SDS011;20010;51.488;7.232;2023-04-15T08:38:28;12.25;;;11.13;;
33491;SDS011;20010;51.488;7.232;2023-04-15T08:40:55;11.68;;;10.75;;
33491;SDS011;20010;51.488;7.232;2023-04-15T08:43:26;11.00;;;10.10;;
33491;SDS011;20010;51.488;7.232;2023-04-15T08:45:54;10.63;;;9.82;;
33491;SDS011;20010;51.488;7.232;2023-04-15T08:48:21;11.52;;;10.50;;
33491;SDS011;20010;51.488;7.232;2023-04-15T08:50:49;11.40;;;10.55;;
33491;SDS011;20010;51.488;7.232;2023-04-15T08:53:16;11.23;;;10.43;;
33491;SDS011;20010;51.488;7.232;2023-04-15T08:55:45;11.93;;;11.02;;
33491;SDS011;20010;51.488;7.232;2023-04-15T08:58:13;10.80;;;10.00;;
33491;SDS011;20010;51.488;7.232;2023-04-15T09:00:41;11.20;;;10.27;;
33491;SDS011;20010;51.488;7.232;2023-04-15T09:03:07;11.40;;;10.50;;
33491;SDS011;20010;51.488;7.232;2023-04-15T09:05:35;9.57;;;8.88;;
33491;SDS011;20010;51.488;7.232;2023-04-15T09:08:03;9.43;;;8.73;;
33491;SDS011;20010;51.488;7.232;2023-04-15T09:10:30;8.60;;;8.00;;
33491;SDS011;20010;51.488;7.232;2023-04-15T09:12:59;8.60;;;7.90;;
33491;SDS011;20010;51.488;7.232;2023-04-15T09:15:26;8.52;;;7.93;;
33491;SDS011;20010;51.488;7.232;2023-04-15T09:17:54;8.27;;;7.68;;
33491;SDS011;20010;51.488;7.232;2023-04-15T09:20:21;9.25;;;8.55;;
33491;SDS011;20010;51.488;7.232;2023-04-15T09:22:49;8.57;;;7.97;;
33491;SDS011;20010;51.488;7.232;2023-04-15T09:27:57;8.45;;;7.88;;
33491;SDS011;20010;51.488;7.232;2023-04-15T09:30:28;8.32;;;7.82;;
33491;SDS011;20010;51.488;7.232;2023-04-15T09:32:59;12.40;;;11.37;;
33491;SDS011;20010;51.488;7.232;2023-04-15T09:35:36;10.80;;;10.00;;
33491;SDS011;20010;51.488;7.232;2023-04-15T09:38:03;10.07;;;9.27;;
33491;SDS011;20010;51.488;7.232;2023-04-15T09:40:46;9.63;;;9.00;;
33491;SDS011;20010;51.488;7.232;2023-04-15T09:43:13;10.55;;;9.80;;
33491;SDS011;20010;51.488;7.232;2023-04-15T09:45:48;10.77;;;9.88;;
33491;SDS011;20010;51.488;7.232;2023-04-15T09:48:17;10.45;;;9.75;;
33491;SDS011;20010;51.488;7.232;2023-04-15T09:50:46;10.27;;;9.57;;
33491;SDS011;20010;51.488;7.232;2023-04-15T09:53:19;10.48;;;9.68;;
33491;SDS011;20010;51.488;7.232;2023-04-15T09:55:50;10.40;;;9.70;;
33491;SDS011;20010;51.488;7.232;2023-04-15T09:58:25;10.93;;;10.13;;
33491;SDS011;20010;51.488;7.232;2023-04-15T10:00:53;10.80;;;10.10;;
33491;SDS011;20010;51.488;7.232;2023-04-15T10:03:23;10.20;;;9.50;;
33491;SDS011;20010;51.488;7.232;2023-04-15T10:05:51;10.20;;;9.32;;
33491;SDS011;20010;51.488;7.232;2023-04-15T10:08:21;9.85;;;9.23;;
33491;SDS011;20010;51.488;7.232;2023-04-15T10:10:54;9.82;;;9.13;;
33491;SDS011;20010;51.488;7.232;2023-04-15T10:13:22;10.57;;;9.75;;
33491;SDS011;20010;51.488;7.232;2023-04-15T10:15:51;10.35;;;9.65;;
33491;SDS011;20010;51.488;7.232;2023-04-15T10:18:19;9.52;;;8.93;;
33491;SDS011;20010;51.488;7.232;2023-04-15T10:20:49;10.85;;;9.95;;
33491;SDS011;20010;51.488;7.232;2023-04-15T10:23:16;10.95;;;10.15;;
33491;SDS011;20010;51.488;7.232;2023-04-15T10:25:44;10.98;;;10.07;;
33491;SDS011;20010;51.488;7.232;2023-04-15T10:28:11;9.75;;;9.07;;
33491;SDS011;20010;51.488;7.232;2023-04-15T10:30:39;10.13;;;9.23;;
33491;SDS011;20010;51.488;7.232;2023-04-15T10:33:05;9.75;;;9.05;;
33491;SDS011;20010;51.488;7.232;2023-04-15T10:35:33;9.90;;;9.18;;
33491;SDS011;20010;51.488;7.232;2023-04-15T10:38:01;9.23;;;8.48;;
33491;SDS011;20010;51.488;7.232;2023-04-15T10:40:31;9.95;;;9.25;;
33491;SDS011;20010;51.488;7.232;2023-04-15T10:42:59;8.65;;;8.05;;
33491;SDS011;20010;51.488;7.232;2023-04-15T10:45:33;8.88;;;8.20;;
33491;SDS011;20010;51.488;7.232;2023-04-15T10:48:05;9.80;;;9.10;;
33491;SDS011;20010;51.488;7.232;2023-04-15T10:50:33;11.95;;;11.05;;
33491;SDS011;20010;51.488;7.232;2023-04-15T10:53:01;11.30;;;10.50;;
33491;SDS011;20010;51.488;7.232;2023-04-15T10:55:33;11.63;;;10.68;;
33491;SDS011;20010;51.488;7.232;2023-04-15T10:58:00;9.48;;;8.88;;
33491;SDS011;20010;51.488;7.232;2023-04-15T11:00:28;10.50;;;9.60;;
33491;SDS011;20010;51.488;7.232;2023-04-15T11:02:57;10.90;;;9.82;;
33491;SDS011;20010;51.488;7.232;2023-04-15T11:05:47;10.32;;;9.50;;
33491;SDS011;20010;51.488;7.232;2023-04-15T11:08:14;10.95;;;9.98;;
33491;SDS011;20010;51.488;7.232;2023-04-15T11:15:35;11.38;;;10.38;;
33491;SDS011;20010;51.488;7.232;2023-04-15T11:20:41;10.93;;;10.02;;
33491;SDS011;20010;51.488;7.232;2023-04-15T11:23:16;10.65;;;9.75;;
33491;SDS011;20010;51.488;7.232;2023-04-15T11:25:44;10.50;;;9.80;;
33491;SDS011;20010;51.488;7.232;2023-04-15T11:28:11;11.48;;;10.57;;
33491;SDS011;20010;51.488;7.232;2023-04-15T11:30:38;10.95;;;10.15;;
33491;SDS011;20010;51.488;7.232;2023-04-15T11:33:06;10.55;;;9.75;;
33491;SDS011;20010;51.488;7.232;2023-04-15T11:35:34;11.18;;;10.18;;
33491;SDS011;20010;51.488;7.232;2023-04-15T11:38:02;11.55;;;10.57;;
33491;SDS011;20010;51.488;7.232;2023-04-15T11:40:30;11.00;;;10.20;;
33491;SDS011;20010;51.488;7.232;2023-04-15T11:45:30;10.73;;;9.93;;
33491;SDS011;20010;51.488;7.232;2023-04-15T11:50:33;10.00;;;9.30;;
33491;SDS011;20010;51.488;7.232;2023-04-15T11:53:01;10.93;;;10.07;;
33491;SDS011;20010;51.488;7.232;2023-04-15T11:58:14;10.57;;;9.77;;
33491;SDS011;20010;51.488;7.232;2023-04-15T12:00:50;10.35;;;9.55;;
33491;SDS011;20010;51.488;7.232;2023-04-15T12:03:35;10.20;;;9.40;;
33491;SDS011;20010;51.488;7.232;2023-04-15T12:16:53;10.55;;;9.63;;
33491;SDS011;20010;51.488;7.232;2023-04-15T12:19:25;10.38;;;9.55;;
33491;SDS011;20010;51.488;7.232;2023-04-15T12:21:59;10.75;;;9.85;;
33491;SDS011;20010;51.488;7.232;2023-04-15T12:24:30;10.40;;;9.60;;
33491;SDS011;20010;51.488;7.232;2023-04-15T12:27:00;10.40;;;9.40;;
33491;SDS011;20010;51.488;7.232;2023-04-15T12:29:28;9.88;;;8.93;;
33491;SDS011;20010;51.488;7.232;2023-04-15T12:32:03;9.95;;;9.13;;
33491;SDS011;20010;51.488;7.232;2023-04-15T12:34:32;9.60;;;9.00;;
33491;SDS011;20010;51.488;7.232;2023-04-15T12:37:01;9.43;;;8.82;;
33491;SDS011;20010;51.488;7.232;2023-04-15T12:39:30;10.07;;;9.25;;
33491;SDS011;20010;51.488;7.232;2023-04-15T12:41:58;9.48;;;8.77;;
33491;SDS011;20010;51.488;7.232;2023-04-15T12:44:26;9.95;;;9.15;;
33491;SDS011;20010;51.488;7.232;2023-04-15T12:46:53;9.60;;;8.90;;
33491;SDS011;20010;51.488;7.232;2023-04-15T12:49:20;10.32;;;9.52;;
33491;SDS011;20010;51.488;7.232;2023-04-15T12:51:47;9.93;;;9.07;;
33491;SDS011;20010;51.488;7.232;2023-04-15T12:54:15;9.50;;;8.80;;
33491;SDS011;20010;51.488;7.232;2023-04-15T12:56:46;9.32;;;8.63;;
33491;SDS011;20010;51.488;7.232;2023-04-15T12:59:13;8.85;;;8.15;;
33491;SDS011;20010;51.488;7.232;2023-04-15T13:01:41;8.38;;;7.80;;
33491;SDS011;20010;51.488;7.232;2023-04-15T13:04:07;8.32;;;7.72;;
33491;SDS011;20010;51.488;7.232;2023-04-15T13:06:35;9.02;;;8.43;;
33491;SDS011;20010;51.488;7.232;2023-04-15T13:09:02;9.35;;;8.65;;
33491;SDS011;20010;51.488;7.232;2023-04-15T13:11:31;8.35;;;7.68;;
33491;SDS011;20010;51.488;7.232;2023-04-15T13:13:59;8.60;;;8.00;;
33491;SDS011;20010;51.488;7.232;2023-04-15T13:16:27;9.23;;;8.63;;
33491;SDS011;20010;51.488;7.232;2023-04-15T13:18:54;8.90;;;8.30;;
33491;SDS011;20010;51.488;7.232;2023-04-15T13:21:21;9.10;;;8.40;;
33491;SDS011;20010;51.488;7.232;2023-04-15T13:23:48;9.55;;;8.82;;
33491;SDS011;20010;51.488;7.232;2023-04-15T13:26:16;10.70;;;9.65;;
33491;SDS011;20010;51.488;7.232;2023-04-15T13:28:43;8.77;;;8.18;;
33491;SDS011;20010;51.488;7.232;2023-04-15T13:31:10;8.75;;;7.97;;
33491;SDS011;20010;51.488;7.232;2023-04-15T13:33:37;8.18;;;7.47;;
33491;SDS011;20010;51.488;7.232;2023-04-15T13:36:04;8.45;;;7.85;;
33491;SDS011;20010;51.488;7.232;2023-04-15T13:38:30;7.85;;;7.20;;
33491;SDS011;20010;51.488;7.232;2023-04-15T13:40:57;7.90;;;7.30;;
33491;SDS011;20010;51.488;7.232;2023-04-15T13:43:23;7.70;;;7.13;;
33491;SDS011;20010;51.488;7.232;2023-04-15T13:45:50;7.85;;;7.25;;
33491;SDS011;20010;51.488;7.232;2023-04-15T13:48:17;7.80;;;7.30;;
33491;SDS011;20010;51.488;7.232;2023-04-15T13:50:43;7.65;;;7.15;;
33491;SDS011;20010;51.488;7.232;2023-04-15T13:53:11;8.30;;;7.80;;
33491;SDS011;20010;51.488;7.232;2023-04-15T13:55:38;7.55;;;6.95;;
33491;SDS011;20010;51.488;7.232;2023-04-15T13:58:08;7.50;;;7.00;;
33491;SDS011;20010;51.488;7.232;2023-04-15T14:00:35;8.00;;;7.45;;
33491;SDS011;20010;51.488;7.232;2023-04-15T14:03:01;8.65;;;7.88;;
33491;SDS011;20010;51.488;7.232;2023-04-15T14:05:28;7.50;;;7.00;;
33491;SDS011;20010;51.488;7.232;2023-04-15T14:07:55;8.55;;;7.88;;
33491;SDS011;20010;51.488;7.232;2023-04-15T14:10:21;8.45;;;7.78;;
33491;SDS011;20010;51.488;7.232;2023-04-15T14:12:48;8.45;;;7.88;;
33491;SDS011;20010;51.488;7.232;2023-04-15T14:15:14;9.15;;;8.45;;
33491;SDS011;20010;51.488;7.232;2023-04-15T14:17:41;8.20;;;7.60;;
33491;SDS011;20010;51.488;7.232;2023-04-15T14:20:08;8.07;;;7.57;;
33491;SDS011;20010;51.488;7.232;2023-04-15T14:22:35;8.65;;;8.00;;
33491;SDS011;20010;51.488;7.232;2023-04-15T14:25:02;10.55;;;9.75;;
33491;SDS011;20010;51.488;7.232;2023-04-15T14:27:29;9.57;;;8.77;;
33491;SDS011;20010;51.488;7.232;2023-04-15T14:29:55;10.02;;;9.23;;
33491;SDS011;20010;51.488;7.232;2023-04-15T14:32:24;8.55;;;7.85;;
33491;SDS011;20010;51.488;7.232;2023-04-15T14:34:51;8.90;;;8.10;;
33491;SDS011;20010;51.488;7.232;2023-04-15T14:37:18;8.30;;;7.60;;
33491;SDS011;20010;51.488;7.232;2023-04-15T14:39:44;8.45;;;7.63;;
33491;SDS011;20010;51.488;7.232;2023-04-15T14:42:11;8.55;;;7.75;;
33491;SDS011;20010;51.488;7.232;2023-04-15T14:44:37;9.27;;;8.40;;
33491;SDS011;20010;51.488;7.232;2023-04-15T14:47:04;10.95;;;9.88;;
33491;SDS011;20010;51.488;7.232;2023-04-15T14:49:31;8.30;;;7.68;;
33491;SDS011;20010;51.488;7.232;2023-04-15T14:51:57;8.65;;;7.95;;
33491;SDS011;20010;51.488;7.232;2023-04-15T14:54:24;8.85;;;8.05;;
33491;SDS011;20010;51.488;7.232;2023-04-15T14:56:51;9.65;;;8.85;;
33491;SDS011;20010;51.488;7.232;2023-04-15T14:59:17;8.82;;;8.13;;
33491;SDS011;20010;51.488;7.232;2023-04-15T15:01:44;8.45;;;7.68;;
33491;SDS011;20010;51.488;7.232;2023-04-15T15:04:10;9.75;;;8.23;;
33491;SDS011;20010;51.488;7.232;2023-04-15T15:06:38;8.95;;;8.23;;
33491;SDS011;20010;51.488;7.232;2023-04-15T15:09:05;10.10;;;9.10;;